sensor_id;sensor_type;location;lat;lon;timestamp;pressure;altitude;pressure_sealevel;temperature;humidity
44198;BME280;30157;55.512;37.764;2022-12-07T00:01:39;101270.44;;;-11.22;61.24
44198;BME280;30157;55.512;37.764;2022-12-07T00:04:07;101155.38;;;-11.84;61.20
44198;BME280;30157;55.512;37.764;2022-12-07T00:06:37;101273.94;;;-11.12;60.62
44198;BME280;30157;55.512;37.764;2022-12-07T00:09:05;101262.78;;;-11.23;61.16
44198;BME280;30157;55.512;37.764;2022-12-07T00:11:31;101297.47;;;-11.03;60.73
44198;BME280;30157;55.512;37.764;2022-12-07T00:14:00;101303.03;;;-11.06;60.65
44198;BME280;30157;55.512;37.764;2022-12-07T00:16:28;101254.94;;;-11.26;60.93
44198;BME280;30157;55.512;37.764;2022-12-07T00:18:54;101303.44;;;-11.10;60.93
44198;BME280;30157;55.512;37.764;2022-12-07T00:21:22;101208.16;;;-11.51;60.74
44198;BME280;30157;55.512;37.764;2022-12-07T00:23:50;101275.00;;;-11.10;60.76
44198;BME280;30157;55.512;37.764;2022-12-07T00:26:20;101262.53;;;-11.18;60.95
44198;BME280;30157;55.512;37.764;2022-12-07T00:28:50;101255.81;;;-11.26;60.71
44198;BME280;30157;55.512;37.764;2022-12-07T00:31:18;101199.56;;;-11.53;60.41
44198;BME280;30157;55.512;37.764;2022-12-07T00:33:45;101277.56;;;-11.02;60.26
44198;BME280;30157;55.512;37.764;2022-12-07T00:36:16;101284.19;;;-11.02;60.18
44198;BME280;30157;55.512;37.764;2022-12-07T00:38:42;101222.69;;;-11.39;60.51
44198;BME280;30157;55.512;37.764;2022-12-07T00:41:19;101286.72;;;-11.02;60.33
44198;BME280;30157;55.512;37.764;2022-12-07T00:43:46;101262.53;;;-11.18;60.38
44198;BME280;30157;55.512;37.764;2022-12-07T00:46:13;101260.59;;;-11.20;60.43
44198;BME280;30157;55.512;37.764;2022-12-07T00:48:39;101259.28;;;-11.17;59.97
44198;BME280;30157;55.512;37.764;2022-12-07T00:51:06;101285.66;;;-11.04;60.23
44198;BME280;30157;55.512;37.764;2022-12-07T00:53:34;101180.03;;;-11.64;60.22
44198;BME280;30157;55.512;37.764;2022-12-07T00:56:11;101284.03;;;-11.04;60.16
44198;BME280;30157;55.512;37.764;2022-12-07T00:58:37;101288.47;;;-11.01;60.22
44198;BME280;30157;55.512;37.764;2022-12-07T01:01:05;101292.91;;;-10.99;60.16
44198;BME280;30157;55.512;37.764;2022-12-07T01:03:31;101292.91;;;-10.99;60.23
44198;BME280;30157;55.512;37.764;2022-12-07T01:05:57;101279.25;;;-11.09;60.07
44198;BME280;30157;55.512;37.764;2022-12-07T01:08:25;101296.41;;;-11.05;60.17
44198;BME280;30157;55.512;37.764;2022-12-07T01:11:03;101288.97;;;-11.12;60.33
44198;BME280;30157;55.512;37.764;2022-12-07T01:13:29;101179.44;;;-11.77;60.44
44198;BME280;30157;55.512;37.764;2022-12-07T01:15:59;101293.28;;;-11.11;60.49
44198;BME280;30157;55.512;37.764;2022-12-07T01:18:29;101292.84;;;-11.07;60.17
44198;BME280;30157;55.512;37.764;2022-12-07T01:23:24;101196.03;;;-11.55;60.42
44198;BME280;30157;55.512;37.764;2022-12-07T01:25:57;101281.91;;;-11.08;60.70
44198;BME280;30157;55.512;37.764;2022-12-07T01:28:23;101266.00;;;-11.24;60.90
44198;BME280;30157;55.512;37.764;2022-12-07T01:31:03;101271.03;;;-11.24;60.86
44198;BME280;30157;55.512;37.764;2022-12-07T01:33:33;101262.06;;;-11.38;61.01
44198;BME280;30157;55.512;37.764;2022-12-07T01:36:07;101266.34;;;-11.37;61.24
44198;BME280;30157;55.512;37.764;2022-12-07T01:38:34;101278.63;;;-11.32;61.56
44198;BME280;30157;55.512;37.764;2022-12-07T01:41:01;101203.19;;;-11.74;61.35
44198;BME280;30157;55.512;37.764;2022-12-07T01:43:29;101202.63;;;-11.71;61.35
44198;BME280;30157;55.512;37.764;2022-12-07T01:45:56;101268.34;;;-11.26;60.86
44198;BME280;30157;55.512;37.764;2022-12-07T01:48:26;101255.91;;;-11.33;61.09
44198;BME280;30157;55.512;37.764;2022-12-07T01:50:55;101213.22;;;-11.58;61.51
44198;BME280;30157;55.512;37.764;2022-12-07T01:53:24;101273.47;;;-11.33;61.46
44198;BME280;30157;55.512;37.764;2022-12-07T01:55:52;101187.13;;;-11.92;61.62
44198;BME280;30157;55.512;37.764;2022-12-07T01:58:19;101257.03;;;-11.38;61.74
44198;BME280;30157;55.512;37.764;2022-12-07T02:00:46;101240.38;;;-11.54;61.75
44198;BME280;30157;55.512;37.764;2022-12-07T02:03:30;101248.09;;;-11.52;62.23
44198;BME280;30157;55.512;37.764;2022-12-07T02:05:58;101257.91;;;-11.54;62.44
44198;BME280;30157;55.512;37.764;2022-12-07T02:08:25;101179.72;;;-11.99;62.31
44198;BME280;30157;55.512;37.764;2022-12-07T02:10:51;101128.53;;;-12.33;62.50
44198;BME280;30157;55.512;37.764;2022-12-07T02:13:27;101238.19;;;-11.67;62.54
44198;BME280;30157;55.512;37.764;2022-12-07T02:18:48;101124.50;;;-12.40;62.53
44198;BME280;30157;55.512;37.764;2022-12-07T02:29:55;101257.03;;;-11.54;62.62
44198;BME280;30157;55.512;37.764;2022-12-07T02:32:59;101252.28;;;-11.60;63.29
44198;BME280;30157;55.512;37.764;2022-12-07T02:35:32;101027.00;;;-13.02;63.01
44198;BME280;30157;55.512;37.764;2022-12-07T02:38:26;101183.75;;;-12.08;62.87
44198;BME280;30157;55.512;37.764;2022-12-07T02:40:53;101189.19;;;-11.96;62.80
44198;BME280;30157;55.512;37.764;2022-12-07T02:43:24;101157.16;;;-12.15;62.73
44198;BME280;30157;55.512;37.764;2022-12-07T02:45:51;101248.38;;;-11.65;63.46
44198;BME280;30157;55.512;37.764;2022-12-07T02:48:20;101212.31;;;-11.90;63.27
44198;BME280;30157;55.512;37.764;2022-12-07T02:50:51;101228.31;;;-11.81;63.62
44198;BME280;30157;55.512;37.764;2022-12-07T02:56:01;101244.50;;;-11.70;63.71
44198;BME280;30157;55.512;37.764;2022-12-07T03:07:16;101240.03;;;-11.73;63.75
44198;BME280;30157;55.512;37.764;2022-12-07T03:13:09;101243.34;;;-11.81;64.45
44198;BME280;30157;55.512;37.764;2022-12-07T03:16:35;101245.03;;;-11.89;64.61
44198;BME280;30157;55.512;37.764;2022-12-07T03:19:10;101247.72;;;-11.87;64.34
44198;BME280;30157;55.512;37.764;2022-12-07T03:21:40;101166.31;;;-12.39;64.85
44198;BME280;30157;55.512;37.764;2022-12-07T03:24:17;101210.88;;;-12.04;64.70
44198;BME280;30157;55.512;37.764;2022-12-07T03:27:11;101232.31;;;-11.83;64.76
44198;BME280;30157;55.512;37.764;2022-12-07T03:29:44;101242.53;;;-11.89;64.70
44198;BME280;30157;55.512;37.764;2022-12-07T03:32:40;101231.94;;;-11.86;65.17
44198;BME280;30157;55.512;37.764;2022-12-07T03:35:21;101228.88;;;-11.84;64.95
44198;BME280;30157;55.512;37.764;2022-12-07T03:37:56;101234.56;;;-11.77;64.89
44198;BME280;30157;55.512;37.764;2022-12-07T03:40:38;101234.56;;;-11.77;65.33
44198;BME280;30157;55.512;37.764;2022-12-07T03:43:06;101181.09;;;-12.10;64.96
44198;BME280;30157;55.512;37.764;2022-12-07T03:48:57;101187.22;;;-12.15;66.00
44198;BME280;30157;55.512;37.764;2022-12-07T03:51:46;101227.09;;;-11.85;66.24
44198;BME280;30157;55.512;37.764;2022-12-07T03:54:28;101233.34;;;-11.81;65.61
44198;BME280;30157;55.512;37.764;2022-12-07T03:56:56;101237.63;;;-11.80;65.99
44198;BME280;30157;55.512;37.764;2022-12-07T03:59:24;101212.81;;;-11.86;65.84
44198;BME280;30157;55.512;37.764;2022-12-07T04:01:53;101231.38;;;-11.84;66.16
44198;BME280;30157;55.512;37.764;2022-12-07T04:04:20;101150.34;;;-12.32;66.49
44198;BME280;30157;55.512;37.764;2022-12-07T04:06:46;101166.91;;;-12.25;66.24
44198;BME280;30157;55.512;37.764;2022-12-07T04:09:12;101155.84;;;-12.27;66.51
44198;BME280;30157;55.512;37.764;2022-12-07T04:11:40;101225.91;;;-11.88;66.64
44198;BME280;30157;55.512;37.764;2022-12-07T04:14:08;101233.81;;;-11.92;66.71
44198;BME280;30157;55.512;37.764;2022-12-07T04:16:52;101209.41;;;-12.02;67.16
44198;BME280;30157;55.512;37.764;2022-12-07T04:19:20;101159.31;;;-12.34;67.16
44198;BME280;30157;55.512;37.764;2022-12-07T04:21:46;101045.19;;;-13.03;66.96
44198;BME280;30157;55.512;37.764;2022-12-07T04:24:14;101100.06;;;-12.65;67.17
44198;BME280;30157;55.512;37.764;2022-12-07T04:26:41;101227.63;;;-11.96;67.09
44198;BME280;30157;55.512;37.764;2022-12-07T04:29:08;101210.22;;;-12.10;67.73
44198;BME280;30157;55.512;37.764;2022-12-07T04:31:34;101177.00;;;-12.32;67.78
44198;BME280;30157;55.512;37.764;2022-12-07T04:34:04;101225.22;;;-12.10;67.73
44198;BME280;30157;55.512;37.764;2022-12-07T04:36:31;101217.00;;;-12.09;68.17
44198;BME280;30157;55.512;37.764;2022-12-07T04:38:57;101179.34;;;-12.34;68.47
44198;BME280;30157;55.512;37.764;2022-12-07T04:41:24;101204.78;;;-12.22;68.06
44198;BME280;30157;55.512;37.764;2022-12-07T04:47:33;101218.84;;;-12.16;68.53
44198;BME280;30157;55.512;37.764;2022-12-07T05:17:48;101047.03;;;-13.56;70.74
44198;BME280;30157;55.512;37.764;2022-12-07T05:20:39;101160.03;;;-12.81;71.46
44198;BME280;30157;55.512;37.764;2022-12-07T05:23:05;101229.16;;;-12.52;71.67
44198;BME280;30157;55.512;37.764;2022-12-07T05:25:30;101208.06;;;-12.77;72.04
44198;BME280;30157;55.512;37.764;2022-12-07T05:27:57;101208.69;;;-12.63;72.09
44198;BME280;30157;55.512;37.764;2022-12-07T05:30:24;101217.94;;;-12.55;71.76
44198;BME280;30157;55.512;37.764;2022-12-07T05:32:50;101217.22;;;-12.54;72.20
44198;BME280;30157;55.512;37.764;2022-12-07T05:35:17;101219.47;;;-12.48;72.29
44198;BME280;30157;55.512;37.764;2022-12-07T05:37:43;101139.41;;;-12.95;72.26
44198;BME280;30157;55.512;37.764;2022-12-07T05:40:10;101136.88;;;-12.88;72.41
44198;BME280;30157;55.512;37.764;2022-12-07T05:42:36;101205.13;;;-12.65;72.81
44198;BME280;30157;55.512;37.764;2022-12-07T05:45:01;101216.59;;;-12.44;73.12
44198;BME280;30157;55.512;37.764;2022-12-07T05:47:30;101228.38;;;-12.43;73.10
44198;BME280;30157;55.512;37.764;2022-12-07T05:49:56;101195.97;;;-12.58;73.12
44198;BME280;30157;55.512;37.764;2022-12-07T05:52:22;101209.16;;;-12.52;73.37
44198;BME280;30157;55.512;37.764;2022-12-07T05:54:47;101162.91;;;-12.78;73.43
44198;BME280;30157;55.512;37.764;2022-12-07T05:57:13;101209.53;;;-12.56;73.40
44198;BME280;30157;55.512;37.764;2022-12-07T05:59:39;101237.84;;;-12.41;73.60
44198;BME280;30157;55.512;37.764;2022-12-07T06:02:12;101208.25;;;-12.52;73.87
44198;BME280;30157;55.512;37.764;2022-12-07T06:04:41;101226.13;;;-12.33;74.11
44198;BME280;30157;55.512;37.764;2022-12-07T06:07:08;101232.81;;;-12.18;73.74
44198;BME280;30157;55.512;37.764;2022-12-07T06:09:34;101240.03;;;-11.73;72.57
44198;BME280;30157;55.512;37.764;2022-12-07T06:12:01;101191.72;;;-12.04;72.66
44198;BME280;30157;55.512;37.764;2022-12-07T06:15:11;101191.31;;;-12.16;72.96
44198;BME280;30157;55.512;37.764;2022-12-07T06:17:38;101225.91;;;-11.56;73.22
44198;BME280;30157;55.512;37.764;2022-12-07T06:20:30;101221.66;;;-10.00;69.57
44198;BME280;30157;55.512;37.764;2022-12-07T06:22:55;101114.44;;;-9.66;65.58
44198;BME280;30157;55.512;37.764;2022-12-07T06:25:21;101212.13;;;-8.36;63.10
44198;BME280;30157;55.512;37.764;2022-12-07T06:27:47;101214.63;;;-8.00;61.72
44198;BME280;30157;55.512;37.764;2022-12-07T06:30:13;101202.09;;;-7.62;61.41
44198;BME280;30157;55.512;37.764;2022-12-07T06:32:38;101165.56;;;-7.37;59.61
44198;BME280;30157;55.512;37.764;2022-12-07T06:35:04;101201.34;;;-6.74;58.29
44198;BME280;30157;55.512;37.764;2022-12-07T06:37:30;101123.75;;;-7.25;57.31
44198;BME280;30157;55.512;37.764;2022-12-07T06:39:56;101196.78;;;-6.49;56.05
44198;BME280;30157;55.512;37.764;2022-12-07T06:42:21;101212.22;;;-6.25;55.83
44198;BME280;30157;55.512;37.764;2022-12-07T06:44:47;101049.47;;;-7.18;55.80
44198;BME280;30157;55.512;37.764;2022-12-07T06:47:13;101197.34;;;-6.12;54.78
44198;BME280;30157;55.512;37.764;2022-12-07T06:49:38;101195.19;;;-5.86;54.41
44198;BME280;30157;55.512;37.764;2022-12-07T06:52:04;101203.16;;;-5.51;53.32
44198;BME280;30157;55.512;37.764;2022-12-07T06:54:31;101190.44;;;-5.20;52.46
44198;BME280;30157;55.512;37.764;2022-12-07T06:56:56;101166.66;;;-5.22;51.79
44198;BME280;30157;55.512;37.764;2022-12-07T06:59:22;101195.38;;;-5.11;52.10
44198;BME280;30157;55.512;37.764;2022-12-07T07:01:48;101192.31;;;-5.07;51.97
44198;BME280;30157;55.512;37.764;2022-12-07T07:04:13;101199.91;;;-4.64;51.03
44198;BME280;30157;55.512;37.764;2022-12-07T07:06:39;101202.53;;;-4.30;50.28
44198;BME280;30157;55.512;37.764;2022-12-07T07:09:06;101196.78;;;-4.06;49.40
44198;BME280;30157;55.512;37.764;2022-12-07T07:11:31;101191.16;;;-3.79;49.02
44198;BME280;30157;55.512;37.764;2022-12-07T07:13:57;101151.47;;;-3.55;47.82
44198;BME280;30157;55.512;37.764;2022-12-07T07:16:30;101176.50;;;-3.60;46.88
44198;BME280;30157;55.512;37.764;2022-12-07T07:18:56;101179.72;;;-3.50;46.73
44198;BME280;30157;55.512;37.764;2022-12-07T07:21:22;101195.22;;;-3.12;47.47
44198;BME280;30157;55.512;37.764;2022-12-07T07:23:48;101161.84;;;-3.52;46.24
44198;BME280;30157;55.512;37.764;2022-12-07T07:26:14;101075.63;;;-3.50;46.75
44198;BME280;30157;55.512;37.764;2022-12-07T07:28:39;101140.66;;;-3.29;46.66
44198;BME280;30157;55.512;37.764;2022-12-07T07:31:05;101137.56;;;-3.48;46.19
44198;BME280;30157;55.512;37.764;2022-12-07T07:33:31;101193.09;;;-2.82;45.49
44198;BME280;30157;55.512;37.764;2022-12-07T07:35:56;101184.22;;;-2.51;44.87
44198;BME280;30157;55.512;37.764;2022-12-07T07:38:22;101156.09;;;-2.16;43.97
44198;BME280;30157;55.512;37.764;2022-12-07T07:40:48;101150.81;;;-1.94;42.90
44198;BME280;30157;55.512;37.764;2022-12-07T07:43:13;101161.97;;;-1.53;41.85
44198;BME280;30157;55.512;37.764;2022-12-07T07:45:39;101184.50;;;-1.32;41.73
44198;BME280;30157;55.512;37.764;2022-12-07T07:48:06;101127.28;;;-1.51;41.44
44198;BME280;30157;55.512;37.764;2022-12-07T07:50:31;101181.97;;;-1.32;40.87
44198;BME280;30157;55.512;37.764;2022-12-07T07:52:58;101153.75;;;-0.95;41.08
44198;BME280;30157;55.512;37.764;2022-12-07T07:55:24;101181.38;;;-1.02;40.36
44198;BME280;30157;55.512;37.764;2022-12-07T07:57:50;101178.44;;;-1.48;42.22
44198;BME280;30157;55.512;37.764;2022-12-07T08:00:16;101112.66;;;-1.67;41.99
44198;BME280;30157;55.512;37.764;2022-12-07T08:02:43;101121.00;;;-1.29;41.24
44198;BME280;30157;55.512;37.764;2022-12-07T08:05:10;101176.81;;;-1.59;41.15
44198;BME280;30157;55.512;37.764;2022-12-07T08:07:36;101132.03;;;-2.95;43.91
44198;BME280;30157;55.512;37.764;2022-12-07T08:10:02;101164.94;;;-1.86;42.35
44198;BME280;30157;55.512;37.764;2022-12-07T08:12:29;101125.66;;;-1.89;41.37
44198;BME280;30157;55.512;37.764;2022-12-07T08:14:55;101170.19;;;-3.77;43.99
44198;BME280;30157;55.512;37.764;2022-12-07T08:17:20;101105.66;;;-3.45;43.49
44198;BME280;30157;55.512;37.764;2022-12-07T08:19:46;101169.25;;;-3.55;44.93
44198;BME280;30157;55.512;37.764;2022-12-07T08:22:12;101172.47;;;-2.98;43.95
44198;BME280;30157;55.512;37.764;2022-12-07T08:24:38;101158.31;;;-3.66;43.04
44198;BME280;30157;55.512;37.764;2022-12-07T08:27:03;101159.19;;;-3.06;43.26
44198;BME280;30157;55.512;37.764;2022-12-07T08:29:29;101077.19;;;-3.76;43.84
44198;BME280;30157;55.512;37.764;2022-12-07T08:31:55;101155.84;;;-3.76;44.85
44198;BME280;30157;55.512;37.764;2022-12-07T08:34:21;101165.41;;;-3.96;45.19
44198;BME280;30157;55.512;37.764;2022-12-07T08:36:46;101140.13;;;-4.28;45.23
44198;BME280;30157;55.512;37.764;2022-12-07T08:39:12;101165.94;;;-4.88;46.33
44198;BME280;30157;55.512;37.764;2022-12-07T08:41:38;101146.78;;;-4.85;46.25
44198;BME280;30157;55.512;37.764;2022-12-07T08:44:04;101073.50;;;-4.94;46.31
44198;BME280;30157;55.512;37.764;2022-12-07T08:49:13;101138.19;;;-5.83;47.74
44198;BME280;30157;55.512;37.764;2022-12-07T08:51:40;101143.53;;;-6.00;49.16
44198;BME280;30157;55.512;37.764;2022-12-07T08:54:09;101139.56;;;-5.76;49.03
44198;BME280;30157;55.512;37.764;2022-12-07T08:56:35;101107.75;;;-6.26;50.08
44198;BME280;30157;55.512;37.764;2022-12-07T08:59:01;101124.13;;;-6.41;50.77
44198;BME280;30157;55.512;37.764;2022-12-07T09:01:28;101149.66;;;-6.48;50.71
44198;BME280;30157;55.512;37.764;2022-12-07T09:03:53;101143.50;;;-6.11;49.71
44198;BME280;30157;55.512;37.764;2022-12-07T09:06:19;101142.06;;;-6.48;49.71
44198;BME280;30157;55.512;37.764;2022-12-07T09:08:47;101152.06;;;-6.50;50.58
44198;BME280;30157;55.512;37.764;2022-12-07T09:11:15;101055.94;;;-7.01;50.71
44198;BME280;30157;55.512;37.764;2022-12-07T09:13:41;101134.75;;;-6.55;51.19
44198;BME280;30157;55.512;37.764;2022-12-07T09:16:07;101078.50;;;-6.63;50.67
44198;BME280;30157;55.512;37.764;2022-12-07T09:18:32;101118.59;;;-6.47;50.73
44198;BME280;30157;55.512;37.764;2022-12-07T09:20:58;101112.59;;;-6.68;50.75
44198;BME280;30157;55.512;37.764;2022-12-07T09:23:24;101123.81;;;-6.75;51.33
44198;BME280;30157;55.512;37.764;2022-12-07T09:25:50;101042.50;;;-7.21;51.13
44198;BME280;30157;55.512;37.764;2022-12-07T09:28:16;101080.50;;;-7.19;51.82
44198;BME280;30157;55.512;37.764;2022-12-07T09:30:47;101112.13;;;-7.23;52.30
44198;BME280;30157;55.512;37.764;2022-12-07T09:33:13;101092.78;;;-7.33;52.51
44198;BME280;30157;55.512;37.764;2022-12-07T09:35:50;101048.41;;;-7.60;52.76
44198;BME280;30157;55.512;37.764;2022-12-07T09:38:16;101037.25;;;-7.72;52.96
44198;BME280;30157;55.512;37.764;2022-12-07T09:40:43;101049.97;;;-7.52;52.32
44198;BME280;30157;55.512;37.764;2022-12-07T09:43:18;101109.97;;;-7.29;53.15
44198;BME280;30157;55.512;37.764;2022-12-07T09:45:46;101094.19;;;-7.55;53.68
44198;BME280;30157;55.512;37.764;2022-12-07T09:48:18;101071.31;;;-7.48;52.85
44198;BME280;30157;55.512;37.764;2022-12-07T09:50:46;101020.88;;;-7.67;52.60
44198;BME280;30157;55.512;37.764;2022-12-07T09:53:33;101098.97;;;-7.10;52.52
44198;BME280;30157;55.512;37.764;2022-12-07T09:56:01;101072.06;;;-7.20;52.71
44198;BME280;30157;55.512;37.764;2022-12-07T09:58:28;101050.53;;;-7.35;52.33
44198;BME280;30157;55.512;37.764;2022-12-07T10:01:01;101094.03;;;-7.09;52.47
44198;BME280;30157;55.512;37.764;2022-12-07T10:03:27;101076.59;;;-7.16;52.61
44198;BME280;30157;55.512;37.764;2022-12-07T10:05:54;101074.88;;;-7.06;52.36
44198;BME280;30157;55.512;37.764;2022-12-07T10:08:21;101040.06;;;-7.40;52.96
44198;BME280;30157;55.512;37.764;2022-12-07T10:10:53;101051.75;;;-7.40;52.68
44198;BME280;30157;55.512;37.764;2022-12-07T10:13:21;101097.91;;;-7.22;52.73
44198;BME280;30157;55.512;37.764;2022-12-07T10:15:54;101102.81;;;-7.24;53.19
44198;BME280;30157;55.512;37.764;2022-12-07T10:18:32;101051.44;;;-7.54;54.09
44198;BME280;30157;55.512;37.764;2022-12-07T10:21:25;101092.38;;;-7.18;53.30
44198;BME280;30157;55.512;37.764;2022-12-07T10:26:49;101067.50;;;-7.24;53.18
44198;BME280;30157;55.512;37.764;2022-12-07T10:29:21;101016.59;;;-7.68;53.59
44198;BME280;30157;55.512;37.764;2022-12-07T10:34:41;101048.88;;;-7.64;54.61
44198;BME280;30157;55.512;37.764;2022-12-07T10:42:28;101027.19;;;-7.91;55.11
44198;BME280;30157;55.512;37.764;2022-12-07T10:50:50;101061.88;;;-7.60;55.07
44198;BME280;30157;55.512;37.764;2022-12-07T10:53:20;101069.94;;;-7.64;54.95
44198;BME280;30157;55.512;37.764;2022-12-07T10:59:04;101053.13;;;-7.73;55.60
44198;BME280;30157;55.512;37.764;2022-12-07T11:01:45;100989.09;;;-7.95;55.20
44198;BME280;30157;55.512;37.764;2022-12-07T11:07:12;101048.66;;;-7.57;55.00
44198;BME280;30157;55.512;37.764;2022-12-07T11:10:19;101044.53;;;-7.95;55.78
44198;BME280;30157;55.512;37.764;2022-12-07T11:15:28;101036.16;;;-8.04;56.57
44198;BME280;30157;55.512;37.764;2022-12-07T11:18:09;101042.84;;;-8.04;56.67
44198;BME280;30157;55.512;37.764;2022-12-07T11:37:23;101013.41;;;-8.33;57.41
44198;BME280;30157;55.512;37.764;2022-12-07T11:39:53;101024.53;;;-8.31;57.90
44198;BME280;30157;55.512;37.764;2022-12-07T11:42:24;101021.44;;;-8.37;58.24
44198;BME280;30157;55.512;37.764;2022-12-07T11:44:55;101035.91;;;-8.26;58.03
44198;BME280;30157;55.512;37.764;2022-12-07T11:47:43;100860.00;;;-9.17;57.81
44198;BME280;30157;55.512;37.764;2022-12-07T11:50:36;101015.91;;;-8.33;58.10
44198;BME280;30157;55.512;37.764;2022-12-07T12:01:24;101015.16;;;-8.70;59.25
44198;BME280;30157;55.512;37.764;2022-12-07T12:03:53;101014.84;;;-8.65;59.45
44198;BME280;30157;55.512;37.764;2022-12-07T12:06:22;100996.44;;;-8.83;60.16
44198;BME280;30157;55.512;37.764;2022-12-07T12:09:05;101006.91;;;-8.78;60.19
44198;BME280;30157;55.512;37.764;2022-12-07T12:14:37;100922.88;;;-9.17;60.22
44198;BME280;30157;55.512;37.764;2022-12-07T12:20:00;100989.53;;;-8.94;60.65
44198;BME280;30157;55.512;37.764;2022-12-07T12:22:36;100991.66;;;-8.80;60.50
44198;BME280;30157;55.512;37.764;2022-12-07T12:25:04;100996.47;;;-8.91;61.03
44198;BME280;30157;55.512;37.764;2022-12-07T12:27:33;100993.03;;;-9.11;61.79
44198;BME280;30157;55.512;37.764;2022-12-07T12:30:02;100961.72;;;-9.32;61.99
44198;BME280;30157;55.512;37.764;2022-12-07T12:37:54;100951.88;;;-9.39;62.19
44198;BME280;30157;55.512;37.764;2022-12-07T12:42:54;100921.59;;;-9.58;62.56
44198;BME280;30157;55.512;37.764;2022-12-07T12:45:32;100882.72;;;-10.07;63.25
44198;BME280;30157;55.512;37.764;2022-12-07T12:47:59;100984.69;;;-9.47;63.20
44198;BME280;30157;55.512;37.764;2022-12-07T12:50:37;100979.56;;;-9.57;63.63
44198;BME280;30157;55.512;37.764;2022-12-07T12:53:24;100931.44;;;-9.97;63.96
44198;BME280;30157;55.512;37.764;2022-12-07T12:56:23;100967.91;;;-9.74;64.26
44198;BME280;30157;55.512;37.764;2022-12-07T13:01:42;100979.34;;;-9.86;64.79
44198;BME280;30157;55.512;37.764;2022-12-07T13:04:39;100982.44;;;-9.89;65.23
44198;BME280;30157;55.512;37.764;2022-12-07T13:21:39;100940.38;;;-10.35;65.15
44198;BME280;30157;55.512;37.764;2022-12-07T13:29:17;100936.84;;;-10.55;65.92
44198;BME280;30157;55.512;37.764;2022-12-07T13:34:33;100986.56;;;-10.24;66.14
44198;BME280;30157;55.512;37.764;2022-12-07T13:37:01;100938.88;;;-10.33;65.50
44198;BME280;30157;55.512;37.764;2022-12-07T13:39:28;100968.56;;;-10.29;65.85
44198;BME280;30157;55.512;37.764;2022-12-07T13:41:57;100979.19;;;-10.32;66.16
44198;BME280;30157;55.512;37.764;2022-12-07T13:44:25;101017.72;;;-10.31;66.41
44198;BME280;30157;55.512;37.764;2022-12-07T13:49:52;100917.66;;;-10.63;65.88
44198;BME280;30157;55.512;37.764;2022-12-07T13:52:21;100976.84;;;-10.21;65.58
44198;BME280;30157;55.512;37.764;2022-12-07T13:54:58;100974.91;;;-10.33;66.01
44198;BME280;30157;55.512;37.764;2022-12-07T13:57:26;100971.41;;;-10.35;66.24
44198;BME280;30157;55.512;37.764;2022-12-07T13:59:52;100966.22;;;-10.45;66.55
44198;BME280;30157;55.512;37.764;2022-12-07T14:02:31;100974.38;;;-10.39;66.39
44198;BME280;30157;55.512;37.764;2022-12-07T14:12:51;100846.22;;;-11.10;66.82
44198;BME280;30157;55.512;37.764;2022-12-07T14:15:27;100973.94;;;-10.35;66.98
44198;BME280;30157;55.512;37.764;2022-12-07T14:17:55;100911.72;;;-10.90;67.26
44198;BME280;30157;55.512;37.764;2022-12-07T14:20:34;100967.69;;;-10.56;67.50
44198;BME280;30157;55.512;37.764;2022-12-07T14:23:03;100890.47;;;-10.93;67.55
44198;BME280;30157;55.512;37.764;2022-12-07T14:25:49;100943.78;;;-10.70;67.73
44198;BME280;30157;55.512;37.764;2022-12-07T14:28:32;100949.13;;;-10.58;67.37
44198;BME280;30157;55.512;37.764;2022-12-07T14:30:59;100952.06;;;-10.62;67.75
44198;BME280;30157;55.512;37.764;2022-12-07T14:33:26;100956.31;;;-10.61;68.31
44198;BME280;30157;55.512;37.764;2022-12-07T14:35:53;100953.34;;;-10.74;68.03
44198;BME280;30157;55.512;37.764;2022-12-07T14:38:21;100933.88;;;-10.86;68.41
44198;BME280;30157;55.512;37.764;2022-12-07T14:40:48;100959.97;;;-10.84;68.45
44198;BME280;30157;55.512;37.764;2022-12-07T14:43:16;100897.03;;;-11.20;68.92
44198;BME280;30157;55.512;37.764;2022-12-07T14:45:42;100941.25;;;-10.87;68.82
44198;BME280;30157;55.512;37.764;2022-12-07T14:48:13;100963.13;;;-10.69;68.80
44198;BME280;30157;55.512;37.764;2022-12-07T14:50:43;100954.25;;;-10.74;69.20
44198;BME280;30157;55.512;37.764;2022-12-07T14:53:13;100965.88;;;-10.83;68.75
44198;BME280;30157;55.512;37.764;2022-12-07T14:55:39;100959.13;;;-10.75;69.39
44198;BME280;30157;55.512;37.764;2022-12-07T14:58:05;100957.78;;;-10.72;69.20
44198;BME280;30157;55.512;37.764;2022-12-07T15:00:31;100960.88;;;-10.74;69.31
44198;BME280;30157;55.512;37.764;2022-12-07T15:02:57;100904.00;;;-11.18;69.41
44198;BME280;30157;55.512;37.764;2022-12-07T15:05:23;100940.03;;;-10.91;69.40
44198;BME280;30157;55.512;37.764;2022-12-07T15:07:49;100973.88;;;-10.70;69.31
44198;BME280;30157;55.512;37.764;2022-12-07T15:10:24;100952.91;;;-10.79;69.46
44198;BME280;30157;55.512;37.764;2022-12-07T15:12:55;100936.53;;;-10.84;69.28
44198;BME280;30157;55.512;37.764;2022-12-07T15:15:41;100926.03;;;-10.89;69.27
44198;BME280;30157;55.512;37.764;2022-12-07T15:18:07;100937.09;;;-10.87;70.06
44198;BME280;30157;55.512;37.764;2022-12-07T15:20:33;100940.22;;;-10.72;69.87
44198;BME280;30157;55.512;37.764;2022-12-07T15:22:59;100909.22;;;-10.90;69.93
44198;BME280;30157;55.512;37.764;2022-12-07T15:25:24;100924.25;;;-10.90;69.78
44198;BME280;30157;55.512;37.764;2022-12-07T15:27:50;100893.66;;;-11.12;69.86
44198;BME280;30157;55.512;37.764;2022-12-07T15:30:16;100933.56;;;-10.80;70.43
44198;BME280;30157;55.512;37.764;2022-12-07T15:32:41;100891.88;;;-11.22;70.66
44198;BME280;30157;55.512;37.764;2022-12-07T15:35:07;100932.53;;;-11.00;70.82
44198;BME280;30157;55.512;37.764;2022-12-07T15:37:33;100922.50;;;-10.91;71.09